createdAt,value
2023-04-10T00:01:36.726Z,21.12
2023-04-10T00:04:07.517Z,21.21
2023-04-10T00:06:37.308Z,21.31
2023-04-10T00:09:07.808Z,21.46
2023-04-10T00:11:38.468Z,21.56
2023-04-10T00:14:09.009Z,21.72
2023-04-10T00:16:39.025Z,21.78
2023-04-10T00:19:09.886Z,21.94
2023-04-10T00:21:41.483Z,21.89
2023-04-10T00:24:13.549Z,21.99
2023-04-10T00:26:44.184Z,21.90
2023-04-10T00:29:14.044Z,21.97
2023-04-10T00:31:44.239Z,22.03
2023-04-10T00:34:15.182Z,22.03
2023-04-10T00:36:48.625Z,22.02
2023-04-10T00:39:19.141Z,22.07
2023-04-10T00:41:49.787Z,22.06
2023-04-10T00:44:20.570Z,22.09
2023-04-10T00:46:51.662Z,22.13
2023-04-10T00:49:21.751Z,22.03
2023-04-10T00:51:52.877Z,22.02
2023-04-10T00:54:23.524Z,22.02
2023-04-10T00:56:58.535Z,21.90
2023-04-10T00:59:28.757Z,22.09
2023-04-10T01:01:59.212Z,22.07
2023-04-10T01:04:30.876Z,21.94
2023-04-10T01:07:05.100Z,21.86
2023-04-10T01:10:07.605Z,21.85
2023-04-10T01:12:40.500Z,21.79
2023-04-10T01:15:20.041Z,21.79
2023-04-10T01:18:00.159Z,21.73
2023-04-10T01:20:39.295Z,21.76
2023-04-10T01:23:21.868Z,21.79
2023-04-10T01:26:14.061Z,21.82
2023-04-10T01:28:57.279Z,21.90
2023-04-10T01:31:52.688Z,21.96
2023-04-10T01:34:33.906Z,22.25
2023-04-10T01:37:07.562Z,22.30
2023-04-10T01:39:42.124Z,22.40
2023-04-10T01:42:16.003Z,22.30
2023-04-10T01:44:48.743Z,22.24
2023-04-10T01:47:19.715Z,22.17
2023-04-10T01:49:50.927Z,22.03
2023-04-10T01:52:25.651Z,21.93
2023-04-10T01:55:10.947Z,22.07
2023-04-10T01:57:51.312Z,22.07
2023-04-10T02:00:22.520Z,22.00
2023-04-10T02:02:55.999Z,21.94
2023-04-10T02:05:34.408Z,21.86
2023-04-10T02:08:18.920Z,21.99
2023-04-10T02:11:00.482Z,22.30
2023-04-10T02:13:34.387Z,22.24
2023-04-10T02:16:08.862Z,21.99
2023-04-10T02:18:42.719Z,21.86
2023-04-10T02:21:13.429Z,21.67
2023-04-10T02:23:45.309Z,21.58
2023-04-10T02:26:18.109Z,21.45
2023-04-10T02:28:50.880Z,21.38
2023-04-10T02:31:22.061Z,21.31
2023-04-10T02:33:53.606Z,21.23
2023-04-10T02:36:23.999Z,21.08
2023-04-10T02:38:58.025Z,20.96
2023-04-10T02:41:29.122Z,20.84
2023-04-10T02:44:00.080Z,20.83
2023-04-10T02:46:31.505Z,20.74
2023-04-10T02:49:01.553Z,20.65
2023-04-10T02:51:35.174Z,20.56
2023-04-10T02:54:06.063Z,20.49
2023-04-10T02:56:37.579Z,20.39
2023-04-10T02:59:09.070Z,20.36
2023-04-10T03:01:40.500Z,20.36
2023-04-10T03:04:11.836Z,20.32
2023-04-10T03:06:43.901Z,20.30
2023-04-10T03:09:14.087Z,20.28
2023-04-10T03:11:44.664Z,20.25
2023-04-10T03:14:15.873Z,20.18
2023-04-10T03:16:46.186Z,20.14
2023-04-10T03:19:17.012Z,20.09
2023-04-10T03:21:49.228Z,20.02
2023-04-10T03:24:20.295Z,20.02
2023-04-10T03:26:50.384Z,20.02
2023-04-10T03:29:21.061Z,19.99
2023-04-10T03:31:52.281Z,19.98
2023-04-10T03:34:23.168Z,19.92
2023-04-10T03:36:55.022Z,19.85
2023-04-10T03:39:25.827Z,19.81
2023-04-10T03:41:57.238Z,19.79
2023-04-10T03:44:28.404Z,19.81
2023-04-10T03:47:00.260Z,19.78
2023-04-10T03:49:30.859Z,19.71
2023-04-10T03:52:07.297Z,19.66
2023-04-10T03:54:38.343Z,19.61
2023-04-10T03:57:10.006Z,19.61
2023-04-10T03:59:40.246Z,19.58
2023-04-10T04:02:14.614Z,19.58
2023-04-10T04:04:47.588Z,19.56
2023-04-10T04:07:43.270Z,19.51
2023-04-10T04:10:23.589Z,19.47
2023-04-10T04:13:19.280Z,19.43
2023-04-10T04:16:10.253Z,19.39
2023-04-10T04:18:48.263Z,19.37
2023-04-10T04:21:47.803Z,19.39
2023-04-10T04:24:27.583Z,19.33
2023-04-10T04:27:08.518Z,19.31
2023-04-10T04:29:51.373Z,19.37
2023-04-10T04:32:28.237Z,19.37
2023-04-10T04:34:58.199Z,19.41
2023-04-10T04:38:03.731Z,19.45
2023-04-10T04:40:59.788Z,19.45
2023-04-10T04:43:48.652Z,19.56
2023-04-10T04:46:26.882Z,19.60
2023-04-10T04:49:25.953Z,19.63
2023-04-10T04:52:12.147Z,19.63
2023-04-10T04:54:49.460Z,19.57
2023-04-10T04:57:36.890Z,19.45
2023-04-10T05:00:23.338Z,19.45
2023-04-10T05:03:18.824Z,19.46
2023-04-10T05:06:15.945Z,19.43
2023-04-10T05:08:54.375Z,19.39
2023-04-10T05:11:45.670Z,19.37
2023-04-10T05:14:39.605Z,19.26
2023-04-10T05:17:28.115Z,19.24
2023-04-10T05:20:12.351Z,19.27
2023-04-10T05:22:48.222Z,19.27
2023-04-10T05:25:37.623Z,19.26
2023-04-10T05:28:34.038Z,19.26
2023-04-10T05:31:24.228Z,19.26
2023-04-10T05:34:12.892Z,19.20
2023-04-10T05:37:10.171Z,19.22
2023-04-10T05:39:48.005Z,19.20
2023-04-10T05:42:30.409Z,19.18
2023-04-10T05:45:21.249Z,19.18
2023-04-10T05:48:09.472Z,19.13
2023-04-10T05:50:58.523Z,19.10
2023-04-10T05:53:37.785Z,19.05
2023-04-10T05:56:26.915Z,19.03
2023-04-10T05:59:30.141Z,19.05
2023-04-10T06:02:00.233Z,18.99
2023-04-10T06:04:30.630Z,19.02
2023-04-10T06:07:03.898Z,18.99
2023-04-10T06:09:37.155Z,19.02
2023-04-10T06:12:09.685Z,19.02
2023-04-10T06:14:42.193Z,18.99
2023-04-10T06:17:12.820Z,18.95
2023-04-10T06:19:44.524Z,18.95
2023-04-10T06:22:15.298Z,18.96
2023-04-10T06:24:45.068Z,18.96
2023-04-10T06:27:16.808Z,18.98
2023-04-10T06:29:48.484Z,18.96
2023-04-10T06:32:24.799Z,18.89
2023-04-10T06:34:54.749Z,18.88
2023-04-10T06:37:34.192Z,18.82
2023-04-10T06:40:12.659Z,18.84
2023-04-10T06:42:44.336Z,18.81
2023-04-10T06:45:25.516Z,18.78
2023-04-10T06:47:56.038Z,18.76
2023-04-10T06:50:27.334Z,18.73
2023-04-10T06:53:01.004Z,18.73
2023-04-10T06:55:31.848Z,18.71
2023-04-10T06:58:01.865Z,18.69
2023-04-10T07:00:32.765Z,18.69
2023-04-10T07:03:03.207Z,18.57
2023-04-10T07:05:33.339Z,18.48
2023-04-10T07:08:03.134Z,18.44
2023-04-10T07:10:33.502Z,18.41
2023-04-10T07:13:04.026Z,18.41
2023-04-10T07:15:34.570Z,18.41
2023-04-10T07:18:04.399Z,18.40
2023-04-10T07:20:34.379Z,18.34
2023-04-10T07:23:06.022Z,18.34
2023-04-10T07:25:36.729Z,18.34
2023-04-10T07:28:07.229Z,18.37
2023-04-10T07:30:37.671Z,18.29
2023-04-10T07:33:08.280Z,18.23
2023-04-10T07:35:38.603Z,18.21
2023-04-10T07:38:09.261Z,18.21
2023-04-10T07:40:41.701Z,18.20
2023-04-10T07:43:11.597Z,18.20
2023-04-10T07:45:42.713Z,18.13
2023-04-10T07:48:13.896Z,18.07
2023-04-10T07:50:44.460Z,18.07
2023-04-10T07:53:14.850Z,18.10
2023-04-10T07:55:50.906Z,18.09
2023-04-10T07:58:21.373Z,18.07
2023-04-10T08:00:51.818Z,18.02
2023-04-10T08:03:23.266Z,18.06
2023-04-10T08:05:54.276Z,18.03
2023-04-10T08:08:24.475Z,18.03
2023-04-10T08:10:54.630Z,18.09
2023-04-10T08:13:28.220Z,18.07
2023-04-10T08:15:58.317Z,18.07
2023-04-10T08:18:28.124Z,18.09
2023-04-10T08:20:58.050Z,18.06
2023-04-10T08:23:28.242Z,18.02
2023-04-10T08:26:00.128Z,18.04
2023-04-10T08:28:30.476Z,18.09
2023-04-10T08:31:00.507Z,18.13
2023-04-10T08:33:31.238Z,18.02
2023-04-10T08:36:03.062Z,18.00
2023-04-10T08:38:33.319Z,18.06
2023-04-10T08:41:03.093Z,18.04
2023-04-10T08:43:35.718Z,17.97
2023-04-10T08:46:07.014Z,17.90
2023-04-10T08:48:54.754Z,17.83
2023-04-10T08:51:30.345Z,17.86
2023-04-10T08:54:10.156Z,17.94
2023-04-10T08:56:43.284Z,17.93
2023-04-10T08:59:14.328Z,17.97
2023-04-10T09:01:44.647Z,17.97
2023-04-10T09:04:14.675Z,17.94
2023-04-10T09:06:46.565Z,17.94
2023-04-10T09:09:17.954Z,17.92
2023-04-10T09:12:02.905Z,17.94
2023-04-10T09:14:35.245Z,17.93
2023-04-10T09:17:31.177Z,17.97
2023-04-10T09:20:02.686Z,17.97
2023-04-10T09:22:35.680Z,17.97
2023-04-10T09:25:06.719Z,17.96
2023-04-10T09:27:38.570Z,18.00
2023-04-10T09:30:10.523Z,18.02
2023-04-10T09:32:42.901Z,18.04
2023-04-10T09:35:15.882Z,18.17
2023-04-10T09:37:48.225Z,18.16
2023-04-10T09:40:26.449Z,18.14
2023-04-10T09:43:00.683Z,18.14
2023-04-10T09:45:49.378Z,18.14
2023-04-10T09:48:20.247Z,18.23
2023-04-10T09:50:51.052Z,18.17
2023-04-10T09:53:23.148Z,18.23
2023-04-10T09:55:53.345Z,18.31
2023-04-10T09:58:23.897Z,18.37
2023-04-10T10:00:57.287Z,18.43
2023-04-10T10:03:28.030Z,18.43
2023-04-10T10:05:58.568Z,18.48
2023-04-10T10:08:29.255Z,18.58
2023-04-10T10:11:02.448Z,18.67
2023-04-10T10:13:41.221Z,18.81
2023-04-10T10:16:20.869Z,18.89
2023-04-10T10:18:58.280Z,18.95
2023-04-10T10:21:30.831Z,18.98
2023-04-10T10:24:03.201Z,19.08
2023-04-10T10:26:36.053Z,19.29
2023-04-10T10:29:12.638Z,19.51
2023-04-10T10:31:44.683Z,19.66
2023-04-10T10:34:17.687Z,19.92
2023-04-10T10:36:48.430Z,20.18
2023-04-10T10:39:44.249Z,20.43
2023-04-10T10:42:32.458Z,20.47
2023-04-10T10:45:09.212Z,20.72
2023-04-10T10:47:54.526Z,20.90
2023-04-10T10:50:24.994Z,20.91
2023-04-10T10:52:58.745Z,21.00
2023-04-10T10:55:29.646Z,21.21
2023-04-10T10:58:06.874Z,21.34
2023-04-10T11:00:52.658Z,21.35
2023-04-10T11:03:23.841Z,21.41
2023-04-10T11:06:07.595Z,21.55
2023-04-10T11:08:49.414Z,22.06
2023-04-10T11:11:25.526Z,22.92
2023-04-10T11:13:58.519Z,23.40
2023-04-10T11:16:37.871Z,23.59
2023-04-10T11:19:15.373Z,24.01
2023-04-10T11:22:06.722Z,23.88
2023-04-10T11:25:11.515Z,26.33
2023-04-10T11:27:54.848Z,29.75
2023-04-10T11:30:34.102Z,26.44
2023-04-10T11:33:06.091Z,27.15
2023-04-10T11:35:37.491Z,30.80
2023-04-10T11:38:11.880Z,32.31
2023-04-10T11:41:03.810Z,33.10
2023-04-10T11:43:35.377Z,32.82
2023-04-10T11:46:09.691Z,32.46
2023-04-10T11:48:41.115Z,32.54
2023-04-10T11:51:14.819Z,32.72
2023-04-10T11:53:45.422Z,33.23
2023-04-10T11:56:25.584Z,33.64
2023-04-10T11:58:56.314Z,33.13
2023-04-10T12:01:27.028Z,33.74
2023-04-10T12:03:57.913Z,34.12
2023-04-10T12:06:29.655Z,34.18
2023-04-10T12:09:00.941Z,33.78
2023-04-10T12:11:30.964Z,34.20
2023-04-10T12:14:01.097Z,34.56
2023-04-10T12:16:32.284Z,33.68
2023-04-10T12:19:03.011Z,32.85
2023-04-10T12:21:35.652Z,32.55
2023-04-10T12:24:07.086Z,32.89
2023-04-10T12:26:37.531Z,33.62
2023-04-10T12:29:11.043Z,32.87
2023-04-10T12:31:42.134Z,33.24
2023-04-10T12:34:19.664Z,33.03
2023-04-10T12:36:55.261Z,33.31
2023-04-10T12:39:27.961Z,32.99
2023-04-10T12:42:21.278Z,32.31
2023-04-10T12:45:02.431Z,31.60
2023-04-10T12:47:33.658Z,31.63
2023-04-10T12:50:13.896Z,32.11
2023-04-10T12:53:02.807Z,32.27
2023-04-10T12:55:32.838Z,32.27
2023-04-10T12:58:29.947Z,31.87
2023-04-10T13:01:04.598Z,32.14
2023-04-10T13:03:41.793Z,32.79
2023-04-10T13:06:12.000Z,32.08
2023-04-10T13:08:42.104Z,32.58
2023-04-10T13:11:13.687Z,32.16
2023-04-10T13:13:44.479Z,32.46
2023-04-10T13:16:16.987Z,32.03
2023-04-10T13:18:47.118Z,31.29
2023-04-10T13:21:21.016Z,31.43
2023-04-10T13:23:52.299Z,30.68
2023-04-10T13:26:24.698Z,30.14
2023-04-10T13:28:54.950Z,30.81
2023-04-10T13:31:25.255Z,31.97
2023-04-10T13:33:55.790Z,32.39
2023-04-10T13:36:26.156Z,32.25
2023-04-10T13:38:57.060Z,31.77
2023-04-10T13:41:27.489Z,32.32
2023-04-10T13:43:57.334Z,32.76
2023-04-10T13:46:29.037Z,33.19
2023-04-10T13:49:00.239Z,32.85
2023-04-10T13:51:30.972Z,33.26
2023-04-10T13:54:01.174Z,33.90
2023-04-10T13:56:31.493Z,33.57
2023-04-10T13:59:02.359Z,33.82
2023-04-10T14:01:32.193Z,32.58
2023-04-10T14:04:02.190Z,31.96
2023-04-10T14:06:32.854Z,32.31
2023-04-10T14:09:03.566Z,32.75
2023-04-10T14:11:33.749Z,32.76
2023-04-10T14:14:04.680Z,33.06
2023-04-10T14:16:34.617Z,33.46
2023-04-10T14:19:05.006Z,32.87
2023-04-10T14:21:35.656Z,32.58
2023-04-10T14:24:05.485Z,32.54
2023-04-10T14:26:35.417Z,32.92
2023-04-10T14:29:05.994Z,33.57
2023-04-10T14:31:50.662Z,33.27
2023-04-10T14:34:27.871Z,33.12
2023-04-10T14:36:59.989Z,33.29
2023-04-10T14:39:30.735Z,32.73
2023-04-10T14:42:00.769Z,33.46
2023-04-10T14:44:33.486Z,33.70
2023-04-10T14:47:07.225Z,33.46
2023-04-10T14:49:37.394Z,33.35
2023-04-10T14:52:08.092Z,33.37
2023-04-10T14:54:39.055Z,33.37
2023-04-10T14:57:10.443Z,33.26
2023-04-10T14:59:40.657Z,32.78
2023-04-10T15:02:11.509Z,33.07
2023-04-10T15:04:44.131Z,33.37
2023-04-10T15:07:16.350Z,33.23
2023-04-10T15:09:47.446Z,33.44
2023-04-10T15:12:18.219Z,34.49
2023-04-10T15:14:48.583Z,34.38
2023-04-10T15:17:18.656Z,33.85
2023-04-10T15:19:48.885Z,34.33
2023-04-10T15:22:19.285Z,35.27
2023-04-10T15:24:51.114Z,35.18
2023-04-10T15:27:25.343Z,35.30
2023-04-10T15:29:55.270Z,34.56
2023-04-10T15:32:25.252Z,34.61
2023-04-10T15:34:55.530Z,34.91
2023-04-10T15:37:26.442Z,34.69
2023-04-10T15:39:57.997Z,34.11
2023-04-10T15:42:29.208Z,34.38
2023-04-10T15:45:00.485Z,33.72
2023-04-10T15:47:31.236Z,34.09
2023-04-10T15:50:02.386Z,35.19
2023-04-10T15:52:34.971Z,35.25
2023-04-10T15:55:05.704Z,35.24
2023-04-10T15:57:36.063Z,35.35
2023-04-10T16:00:09.068Z,35.78
2023-04-10T16:02:41.635Z,34.61
2023-04-10T16:05:12.848Z,35.03
2023-04-10T16:07:44.716Z,34.82
2023-04-10T16:10:15.157Z,35.17
2023-04-10T16:12:45.018Z,35.71
2023-04-10T16:15:18.081Z,35.33
2023-04-10T16:17:49.149Z,35.07
2023-04-10T16:20:20.015Z,35.03
2023-04-10T16:22:50.290Z,34.82
2023-04-10T16:25:21.662Z,34.79
2023-04-10T16:27:53.446Z,34.56
2023-04-10T16:30:25.419Z,34.94
2023-04-10T16:32:56.044Z,35.25
2023-04-10T16:35:25.887Z,35.82
2023-04-10T16:37:57.619Z,36.00
2023-04-10T16:40:37.887Z,35.19
2023-04-10T16:43:08.074Z,35.79
2023-04-10T16:45:38.708Z,35.76
2023-04-10T16:48:08.929Z,35.65
2023-04-10T16:50:42.248Z,35.15
2023-04-10T16:53:13.685Z,35.49
2023-04-10T16:55:43.888Z,36.20
2023-04-10T16:58:17.164Z,35.62
2023-04-10T17:00:50.213Z,35.52
2023-04-10T17:03:22.670Z,35.99
2023-04-10T17:05:53.247Z,35.99
2023-04-10T17:08:23.888Z,36.29
2023-04-10T17:10:54.839Z,37.07
2023-04-10T17:13:24.921Z,37.28
2023-04-10T17:15:55.326Z,36.66
2023-04-10T17:18:25.153Z,36.90
2023-04-10T17:20:57.743Z,37.15
2023-04-10T17:23:28.574Z,37.69
2023-04-10T17:25:59.589Z,38.07
2023-04-10T17:28:29.909Z,37.43
2023-04-10T17:30:59.724Z,37.14
2023-04-10T17:33:30.680Z,37.78
2023-04-10T17:36:01.553Z,36.72
2023-04-10T17:38:31.821Z,36.71
2023-04-10T17:41:01.587Z,35.88
2023-04-10T17:43:32.190Z,36.20
2023-04-10T17:46:05.395Z,37.03
2023-04-10T17:48:36.517Z,37.18
2023-04-10T17:51:08.469Z,37.36
2023-04-10T17:53:39.788Z,38.11
2023-04-10T17:56:10.296Z,39.16
2023-04-10T17:58:41.040Z,39.68
2023-04-10T18:01:10.965Z,39.80
2023-04-10T18:03:42.476Z,39.39
2023-04-10T18:06:13.316Z,39.07
2023-04-10T18:08:45.146Z,39.27
2023-04-10T18:11:15.766Z,38.58
2023-04-10T18:13:45.578Z,39.33
2023-04-10T18:16:16.787Z,37.42
2023-04-10T18:18:47.720Z,38.48
2023-04-10T18:21:17.521Z,39.61
2023-04-10T18:23:47.548Z,39.99
2023-04-10T18:26:20.610Z,38.23
2023-04-10T18:28:52.170Z,40.11
2023-04-10T18:31:23.473Z,36.78
2023-04-10T18:34:06.436Z,36.44
2023-04-10T18:36:38.284Z,35.04
2023-04-10T18:39:08.681Z,36.47
2023-04-10T18:41:39.782Z,39.58
2023-04-10T18:44:09.684Z,40.75
2023-04-10T18:46:46.184Z,40.59
2023-04-10T18:49:19.030Z,40.45
2023-04-10T18:51:49.989Z,37.56
2023-04-10T18:54:20.362Z,37.15
2023-04-10T18:56:50.166Z,35.08
2023-04-10T18:59:21.439Z,35.06
2023-04-10T19:01:52.393Z,37.93
2023-04-10T19:04:22.926Z,39.50
2023-04-10T19:06:53.763Z,36.57
2023-04-10T19:09:23.511Z,34.61
2023-04-10T19:11:55.373Z,33.03
2023-04-10T19:14:26.452Z,34.43
2023-04-10T19:16:57.747Z,33.19
2023-04-10T19:19:28.377Z,32.71
2023-04-10T19:22:00.159Z,32.23
2023-04-10T19:24:34.377Z,31.93
2023-04-10T19:27:04.714Z,31.72
2023-04-10T19:29:35.024Z,31.53
2023-04-10T19:32:06.064Z,31.30
2023-04-10T19:34:37.889Z,30.95
2023-04-10T19:37:08.526Z,30.57
2023-04-10T19:39:38.240Z,30.32
2023-04-10T19:42:08.345Z,30.01
2023-04-10T19:44:39.369Z,29.78
2023-04-10T19:47:09.859Z,29.44
2023-04-10T19:49:40.320Z,29.28
2023-04-10T19:52:10.549Z,29.11
2023-04-10T19:54:40.738Z,28.97
2023-04-10T19:57:12.220Z,28.87
2023-04-10T19:59:43.781Z,28.75
2023-04-10T20:02:16.497Z,28.63
2023-04-10T20:04:48.681Z,28.45
2023-04-10T20:07:19.937Z,28.28
2023-04-10T20:09:52.026Z,28.08
2023-04-10T20:12:21.967Z,28.02
2023-04-10T20:14:51.798Z,28.01
2023-04-10T20:17:22.962Z,27.87
2023-04-10T20:19:54.707Z,27.77
2023-04-10T20:22:24.886Z,27.71
2023-04-10T20:24:54.908Z,27.60
2023-04-10T20:27:25.866Z,27.43
2023-04-10T20:29:56.725Z,27.30
2023-04-10T20:32:26.532Z,27.19
2023-04-10T20:34:57.011Z,27.05
2023-04-10T20:37:28.085Z,26.95
2023-04-10T20:39:59.541Z,26.80
2023-04-10T20:42:29.960Z,26.62
2023-04-10T20:44:59.750Z,26.54
2023-04-10T20:47:30.620Z,26.47
2023-04-10T20:50:01.394Z,26.30
2023-04-10T20:52:32.993Z,26.14
2023-04-10T20:55:03.642Z,26.06
2023-04-10T20:57:36.170Z,25.92
2023-04-10T21:00:07.969Z,25.81
2023-04-10T21:02:39.409Z,25.83
2023-04-10T21:05:10.006Z,26.33
2023-04-10T21:07:40.834Z,26.47
2023-04-10T21:10:11.229Z,26.54
2023-04-10T21:12:41.918Z,26.51
2023-04-10T21:15:12.006Z,26.41
2023-04-10T21:17:41.907Z,26.34
2023-04-10T21:20:14.244Z,26.19
2023-04-10T21:22:45.167Z,26.10
2023-04-10T21:25:15.827Z,26.03
2023-04-10T21:27:45.766Z,25.92
2023-04-10T21:30:16.121Z,25.76
2023-04-10T21:32:47.243Z,25.62
2023-04-10T21:35:17.907Z,25.54
2023-04-10T21:37:50.447Z,25.44
2023-04-10T21:40:20.383Z,25.35
2023-04-10T21:42:50.141Z,25.24
2023-04-10T21:45:21.022Z,25.20
2023-04-10T21:47:51.916Z,25.07
2023-04-10T21:50:23.525Z,25.03
2023-04-10T21:52:53.970Z,25.03
2023-04-10T21:55:24.348Z,25.00
2023-04-10T21:57:54.765Z,25.00
2023-04-10T22:00:25.142Z,24.91
2023-04-10T22:02:55.474Z,24.86
2023-04-10T22:05:26.272Z,24.75
2023-04-10T22:07:57.996Z,24.72
2023-04-10T22:10:29.201Z,24.72
2023-04-10T22:12:59.877Z,24.76
2023-04-10T22:15:29.936Z,24.76
2023-04-10T22:17:59.768Z,24.67
2023-04-10T22:20:30.272Z,24.65
2023-04-10T22:23:00.749Z,24.62
2023-04-10T22:25:32.922Z,24.60
2023-04-10T22:28:02.923Z,24.56
2023-04-10T22:30:33.224Z,24.52
2023-04-10T22:33:03.464Z,24.48
2023-04-10T22:35:33.792Z,24.48
2023-04-10T22:38:07.910Z,24.42
2023-04-10T22:40:37.993Z,24.42
2023-04-10T22:43:08.059Z,24.33
2023-04-10T22:45:41.293Z,24.26
2023-04-10T22:48:11.571Z,24.35
2023-04-10T22:50:43.103Z,24.29
2023-04-10T22:53:13.502Z,24.21
2023-04-10T22:55:43.885Z,24.08
2023-04-10T22:58:14.904Z,24.15
2023-04-10T23:00:45.696Z,24.12
2023-04-10T23:03:15.499Z,24.08
2023-04-10T23:05:45.722Z,24.07
2023-04-10T23:08:17.102Z,24.04
2023-04-10T23:10:47.797Z,23.96
2023-04-10T23:13:17.596Z,24.00
2023-04-10T23:15:53.076Z,24.02
2023-04-10T23:18:24.924Z,24.09
2023-04-10T23:20:55.626Z,24.07
2023-04-10T23:23:25.944Z,24.14
2023-04-10T23:26:00.888Z,23.97
2023-04-10T23:28:31.969Z,23.81
2023-04-10T23:31:02.504Z,23.67
2023-04-10T23:33:33.224Z,23.61
2023-04-10T23:36:03.891Z,23.51
2023-04-10T23:38:33.969Z,23.37
2023-04-10T23:41:04.490Z,23.19
2023-04-10T23:43:35.708Z,23.18
2023-04-10T23:46:06.413Z,23.09
2023-04-10T23:48:36.920Z,22.98
2023-04-10T23:51:08.516Z,23.08
2023-04-10T23:53:40.581Z,22.98
2023-04-10T23:56:10.945Z,22.81
2023-04-10T23:58:40.765Z,22.73
